sensor_id;sensor_type;location;lat;lon;timestamp;P1;durP1;ratioP1;P2;durP2;ratioP2
41275;SDS011;27010;47.718;12.912;2023-03-23T00:01:20;1.40;;;1.30;;
41275;SDS011;27010;47.718;12.912;2023-03-23T00:04:22;1.30;;;1.07;;
41275;SDS011;27010;47.718;12.912;2023-03-23T00:07:24;3.47;;;1.47;;
41275;SDS011;27010;47.718;12.912;2023-03-23T00:10:27;1.97;;;1.27;;
41275;SDS011;27010;47.718;12.912;2023-03-23T00:13:33;4.47;;;1.23;;
41275;SDS011;27010;47.718;12.912;2023-03-23T00:16:33;3.87;;;1.50;;
41275;SDS011;27010;47.718;12.912;2023-03-23T00:19:37;3.80;;;1.47;;
41275;SDS011;27010;47.718;12.912;2023-03-23T00:22:46;3.83;;;1.43;;
41275;SDS011;27010;47.718;12.912;2023-03-23T00:25:47;3.43;;;1.20;;
41275;SDS011;27010;47.718;12.912;2023-03-23T00:28:49;1.87;;;1.73;;
41275;SDS011;27010;47.718;12.912;2023-03-23T00:31:51;2.60;;;1.40;;
41275;SDS011;27010;47.718;12.912;2023-03-23T00:34:52;1.13;;;1.03;;
41275;SDS011;27010;47.718;12.912;2023-03-23T00:37:54;3.77;;;1.10;;
41275;SDS011;27010;47.718;12.912;2023-03-23T00:40:55;2.20;;;1.20;;
41275;SDS011;27010;47.718;12.912;2023-03-23T00:43:57;5.03;;;1.10;;
41275;SDS011;27010;47.718;12.912;2023-03-23T00:47:01;2.40;;;1.17;;
41275;SDS011;27010;47.718;12.912;2023-03-23T00:50:02;1.90;;;1.20;;
41275;SDS011;27010;47.718;12.912;2023-03-23T00:53:05;3.13;;;1.10;;
41275;SDS011;27010;47.718;12.912;2023-03-23T00:56:07;3.53;;;1.40;;
41275;SDS011;27010;47.718;12.912;2023-03-23T00:59:09;1.30;;;1.00;;
41275;SDS011;27010;47.718;12.912;2023-03-23T01:02:09;4.83;;;1.23;;
41275;SDS011;27010;47.718;12.912;2023-03-23T01:05:10;1.90;;;1.10;;
41275;SDS011;27010;47.718;12.912;2023-03-23T01:08:12;1.40;;;1.00;;
41275;SDS011;27010;47.718;12.912;2023-03-23T01:11:14;2.13;;;1.27;;
41275;SDS011;27010;47.718;12.912;2023-03-23T01:14:17;2.13;;;1.00;;
41275;SDS011;27010;47.718;12.912;2023-03-23T01:17:18;2.23;;;1.23;;
41275;SDS011;27010;47.718;12.912;2023-03-23T01:20:20;1.20;;;1.00;;
41275;SDS011;27010;47.718;12.912;2023-03-23T01:23:22;1.33;;;1.03;;
41275;SDS011;27010;47.718;12.912;2023-03-23T01:26:24;2.77;;;0.97;;
41275;SDS011;27010;47.718;12.912;2023-03-23T01:29:26;4.10;;;1.13;;
41275;SDS011;27010;47.718;12.912;2023-03-23T01:32:27;2.40;;;1.30;;
41275;SDS011;27010;47.718;12.912;2023-03-23T01:35:29;2.77;;;1.20;;
41275;SDS011;27010;47.718;12.912;2023-03-23T01:38:30;2.93;;;1.20;;
41275;SDS011;27010;47.718;12.912;2023-03-23T01:41:31;4.90;;;1.63;;
41275;SDS011;27010;47.718;12.912;2023-03-23T01:47:34;5.00;;;1.27;;
41275;SDS011;27010;47.718;12.912;2023-03-23T01:50:37;2.20;;;1.17;;
41275;SDS011;27010;47.718;12.912;2023-03-23T01:54:04;1.63;;;1.30;;
41275;SDS011;27010;47.718;12.912;2023-03-23T01:57:08;2.20;;;1.47;;
41275;SDS011;27010;47.718;12.912;2023-03-23T02:00:15;5.73;;;2.80;;
41275;SDS011;27010;47.718;12.912;2023-03-23T02:03:16;2.60;;;1.60;;
41275;SDS011;27010;47.718;12.912;2023-03-23T02:06:18;1.53;;;1.20;;
41275;SDS011;27010;47.718;12.912;2023-03-23T02:09:18;5.10;;;1.93;;
41275;SDS011;27010;47.718;12.912;2023-03-23T02:12:20;1.73;;;1.13;;
41275;SDS011;27010;47.718;12.912;2023-03-23T02:15:20;2.30;;;1.30;;
41275;SDS011;27010;47.718;12.912;2023-03-23T02:25:27;3.17;;;1.40;;
41275;SDS011;27010;47.718;12.912;2023-03-23T02:28:55;1.53;;;1.10;;
41275;SDS011;27010;47.718;12.912;2023-03-23T02:32:04;5.00;;;1.30;;
41275;SDS011;27010;47.718;12.912;2023-03-23T02:35:44;2.20;;;1.33;;
41275;SDS011;27010;47.718;12.912;2023-03-23T02:39:02;2.97;;;1.10;;
41275;SDS011;27010;47.718;12.912;2023-03-23T02:42:07;2.07;;;1.30;;
41275;SDS011;27010;47.718;12.912;2023-03-23T02:45:09;4.23;;;1.30;;
41275;SDS011;27010;47.718;12.912;2023-03-23T02:48:11;2.07;;;1.50;;
41275;SDS011;27010;47.718;12.912;2023-03-23T02:51:14;2.10;;;1.30;;
41275;SDS011;27010;47.718;12.912;2023-03-23T02:54:18;1.70;;;1.17;;
41275;SDS011;27010;47.718;12.912;2023-03-23T02:57:20;1.30;;;1.10;;
41275;SDS011;27010;47.718;12.912;2023-03-23T03:00:23;2.30;;;1.37;;
41275;SDS011;27010;47.718;12.912;2023-03-23T03:03:28;6.23;;;2.70;;
41275;SDS011;27010;47.718;12.912;2023-03-23T03:06:38;5.60;;;1.37;;
41275;SDS011;27010;47.718;12.912;2023-03-23T03:12:56;1.97;;;1.20;;
41275;SDS011;27010;47.718;12.912;2023-03-23T03:19:17;2.87;;;1.50;;
41275;SDS011;27010;47.718;12.912;2023-03-23T03:22:22;2.00;;;1.10;;
41275;SDS011;27010;47.718;12.912;2023-03-23T03:25:24;3.23;;;1.33;;
41275;SDS011;27010;47.718;12.912;2023-03-23T03:28:28;2.07;;;1.57;;
41275;SDS011;27010;47.718;12.912;2023-03-23T03:31:29;3.00;;;1.60;;
41275;SDS011;27010;47.718;12.912;2023-03-23T03:34:33;2.73;;;1.40;;
41275;SDS011;27010;47.718;12.912;2023-03-23T03:37:37;2.40;;;1.20;;
41275;SDS011;27010;47.718;12.912;2023-03-23T03:40:38;1.93;;;1.40;;
41275;SDS011;27010;47.718;12.912;2023-03-23T03:43:39;1.73;;;1.23;;
41275;SDS011;27010;47.718;12.912;2023-03-23T03:46:40;2.37;;;0.90;;
41275;SDS011;27010;47.718;12.912;2023-03-23T03:49:41;2.83;;;1.50;;
41275;SDS011;27010;47.718;12.912;2023-03-23T03:52:43;3.20;;;1.00;;
41275;SDS011;27010;47.718;12.912;2023-03-23T03:55:44;1.60;;;0.93;;
41275;SDS011;27010;47.718;12.912;2023-03-23T03:58:45;2.50;;;1.00;;
41275;SDS011;27010;47.718;12.912;2023-03-23T04:01:48;1.83;;;1.07;;
41275;SDS011;27010;47.718;12.912;2023-03-23T04:04:54;1.93;;;1.13;;
41275;SDS011;27010;47.718;12.912;2023-03-23T04:07:55;1.83;;;1.60;;
41275;SDS011;27010;47.718;12.912;2023-03-23T04:11:01;1.57;;;1.20;;
41275;SDS011;27010;47.718;12.912;2023-03-23T04:14:02;1.50;;;1.00;;
41275;SDS011;27010;47.718;12.912;2023-03-23T04:17:03;3.00;;;1.57;;
41275;SDS011;27010;47.718;12.912;2023-03-23T04:20:04;5.00;;;1.57;;
41275;SDS011;27010;47.718;12.912;2023-03-23T04:23:15;4.93;;;1.33;;
41275;SDS011;27010;47.718;12.912;2023-03-23T04:26:23;2.33;;;1.67;;
41275;SDS011;27010;47.718;12.912;2023-03-23T04:29:24;3.10;;;1.10;;
41275;SDS011;27010;47.718;12.912;2023-03-23T04:32:25;2.13;;;1.20;;
41275;SDS011;27010;47.718;12.912;2023-03-23T04:35:30;3.10;;;1.77;;
41275;SDS011;27010;47.718;12.912;2023-03-23T04:38:31;2.93;;;1.20;;
41275;SDS011;27010;47.718;12.912;2023-03-23T04:41:33;1.47;;;1.30;;
41275;SDS011;27010;47.718;12.912;2023-03-23T04:44:34;2.17;;;1.80;;
41275;SDS011;27010;47.718;12.912;2023-03-23T04:47:36;1.53;;;1.30;;
41275;SDS011;27010;47.718;12.912;2023-03-23T04:50:40;3.00;;;1.20;;
41275;SDS011;27010;47.718;12.912;2023-03-23T04:53:41;3.47;;;1.27;;
41275;SDS011;27010;47.718;12.912;2023-03-23T04:56:42;1.90;;;1.20;;
41275;SDS011;27010;47.718;12.912;2023-03-23T04:59:43;1.90;;;1.10;;
41275;SDS011;27010;47.718;12.912;2023-03-23T05:02:45;2.93;;;1.13;;
41275;SDS011;27010;47.718;12.912;2023-03-23T05:05:47;2.97;;;1.40;;
41275;SDS011;27010;47.718;12.912;2023-03-23T05:08:52;4.03;;;0.83;;
41275;SDS011;27010;47.718;12.912;2023-03-23T05:11:52;3.17;;;1.30;;
41275;SDS011;27010;47.718;12.912;2023-03-23T05:14:53;1.90;;;1.40;;
41275;SDS011;27010;47.718;12.912;2023-03-23T05:17:54;3.80;;;1.43;;
41275;SDS011;27010;47.718;12.912;2023-03-23T05:20:59;2.77;;;1.37;;
41275;SDS011;27010;47.718;12.912;2023-03-23T05:24:04;7.17;;;1.37;;
41275;SDS011;27010;47.718;12.912;2023-03-23T05:27:06;2.90;;;1.20;;
41275;SDS011;27010;47.718;12.912;2023-03-23T05:30:08;2.03;;;1.13;;
41275;SDS011;27010;47.718;12.912;2023-03-23T05:33:09;2.37;;;1.20;;
41275;SDS011;27010;47.718;12.912;2023-03-23T05:36:10;2.20;;;1.30;;
41275;SDS011;27010;47.718;12.912;2023-03-23T05:39:13;2.83;;;1.33;;
41275;SDS011;27010;47.718;12.912;2023-03-23T05:42:15;2.33;;;1.17;;
41275;SDS011;27010;47.718;12.912;2023-03-23T05:45:16;6.13;;;1.43;;
41275;SDS011;27010;47.718;12.912;2023-03-23T05:48:16;5.27;;;1.10;;
41275;SDS011;27010;47.718;12.912;2023-03-23T05:51:17;2.70;;;1.30;;
41275;SDS011;27010;47.718;12.912;2023-03-23T05:54:19;2.10;;;1.10;;
41275;SDS011;27010;47.718;12.912;2023-03-23T05:57:20;3.50;;;1.20;;
41275;SDS011;27010;47.718;12.912;2023-03-23T06:00:23;1.60;;;1.00;;
41275;SDS011;27010;47.718;12.912;2023-03-23T06:03:24;2.80;;;1.10;;
41275;SDS011;27010;47.718;12.912;2023-03-23T06:06:25;3.50;;;1.40;;
41275;SDS011;27010;47.718;12.912;2023-03-23T06:09:27;4.50;;;1.20;;
41275;SDS011;27010;47.718;12.912;2023-03-23T06:12:28;4.07;;;1.20;;
41275;SDS011;27010;47.718;12.912;2023-03-23T06:15:29;3.90;;;1.53;;
41275;SDS011;27010;47.718;12.912;2023-03-23T06:18:31;2.50;;;1.43;;
41275;SDS011;27010;47.718;12.912;2023-03-23T06:21:34;2.37;;;1.40;;
41275;SDS011;27010;47.718;12.912;2023-03-23T06:24:35;2.03;;;1.30;;
41275;SDS011;27010;47.718;12.912;2023-03-23T06:27:35;2.87;;;1.60;;
41275;SDS011;27010;47.718;12.912;2023-03-23T06:30:36;3.77;;;1.20;;
41275;SDS011;27010;47.718;12.912;2023-03-23T06:33:37;2.90;;;1.33;;
41275;SDS011;27010;47.718;12.912;2023-03-23T06:36:39;4.03;;;1.90;;
41275;SDS011;27010;47.718;12.912;2023-03-23T06:39:39;1.40;;;1.30;;
41275;SDS011;27010;47.718;12.912;2023-03-23T06:42:40;3.23;;;1.43;;
41275;SDS011;27010;47.718;12.912;2023-03-23T06:45:41;4.80;;;1.60;;
41275;SDS011;27010;47.718;12.912;2023-03-23T06:48:42;5.93;;;1.63;;
41275;SDS011;27010;47.718;12.912;2023-03-23T06:51:42;1.57;;;1.43;;
41275;SDS011;27010;47.718;12.912;2023-03-23T06:54:44;4.17;;;1.57;;
41275;SDS011;27010;47.718;12.912;2023-03-23T06:57:44;6.87;;;1.90;;
41275;SDS011;27010;47.718;12.912;2023-03-23T07:00:46;11.03;;;1.80;;
41275;SDS011;27010;47.718;12.912;2023-03-23T07:03:47;4.80;;;1.37;;
41275;SDS011;27010;47.718;12.912;2023-03-23T07:06:49;6.93;;;3.00;;
41275;SDS011;27010;47.718;12.912;2023-03-23T07:09:50;4.73;;;2.00;;
41275;SDS011;27010;47.718;12.912;2023-03-23T07:12:51;4.10;;;1.83;;
41275;SDS011;27010;47.718;12.912;2023-03-23T07:15:51;5.30;;;1.83;;
41275;SDS011;27010;47.718;12.912;2023-03-23T07:18:53;4.67;;;1.50;;
41275;SDS011;27010;47.718;12.912;2023-03-23T07:21:53;2.20;;;1.30;;
41275;SDS011;27010;47.718;12.912;2023-03-23T07:24:54;7.63;;;1.20;;
41275;SDS011;27010;47.718;12.912;2023-03-23T07:27:55;1.93;;;1.20;;
41275;SDS011;27010;47.718;12.912;2023-03-23T07:30:56;2.40;;;1.30;;
41275;SDS011;27010;47.718;12.912;2023-03-23T07:33:57;2.60;;;1.33;;
41275;SDS011;27010;47.718;12.912;2023-03-23T07:36:58;4.47;;;1.20;;
41275;SDS011;27010;47.718;12.912;2023-03-23T07:39:59;8.63;;;1.30;;
41275;SDS011;27010;47.718;12.912;2023-03-23T07:43:01;3.23;;;1.30;;
41275;SDS011;27010;47.718;12.912;2023-03-23T07:46:02;5.17;;;1.27;;
41275;SDS011;27010;47.718;12.912;2023-03-23T07:49:03;2.07;;;1.33;;
41275;SDS011;27010;47.718;12.912;2023-03-23T07:52:05;8.20;;;3.57;;
41275;SDS011;27010;47.718;12.912;2023-03-23T07:55:07;4.73;;;1.30;;
41275;SDS011;27010;47.718;12.912;2023-03-23T07:58:12;1.53;;;1.00;;
41275;SDS011;27010;47.718;12.912;2023-03-23T08:01:18;2.13;;;1.00;;
41275;SDS011;27010;47.718;12.912;2023-03-23T08:04:19;3.03;;;0.93;;
41275;SDS011;27010;47.718;12.912;2023-03-23T08:07:20;1.43;;;1.33;;
41275;SDS011;27010;47.718;12.912;2023-03-23T08:10:21;2.93;;;1.67;;
41275;SDS011;27010;47.718;12.912;2023-03-23T08:13:23;3.43;;;1.20;;
41275;SDS011;27010;47.718;12.912;2023-03-23T08:16:24;2.50;;;1.30;;
41275;SDS011;27010;47.718;12.912;2023-03-23T08:19:26;5.43;;;1.47;;
41275;SDS011;27010;47.718;12.912;2023-03-23T08:22:26;3.37;;;1.50;;
41275;SDS011;27010;47.718;12.912;2023-03-23T08:25:30;4.53;;;1.40;;
41275;SDS011;27010;47.718;12.912;2023-03-23T08:28:34;3.50;;;1.60;;
41275;SDS011;27010;47.718;12.912;2023-03-23T08:31:37;5.23;;;1.37;;
41275;SDS011;27010;47.718;12.912;2023-03-23T08:34:39;6.80;;;1.30;;
41275;SDS011;27010;47.718;12.912;2023-03-23T08:37:40;3.87;;;1.20;;
41275;SDS011;27010;47.718;12.912;2023-03-23T08:40:41;3.77;;;1.10;;
41275;SDS011;27010;47.718;12.912;2023-03-23T08:43:44;4.10;;;1.80;;
41275;SDS011;27010;47.718;12.912;2023-03-23T08:46:45;4.47;;;1.57;;
41275;SDS011;27010;47.718;12.912;2023-03-23T08:49:46;2.93;;;1.40;;
41275;SDS011;27010;47.718;12.912;2023-03-23T08:52:46;4.33;;;1.60;;
41275;SDS011;27010;47.718;12.912;2023-03-23T08:55:48;4.30;;;1.10;;
41275;SDS011;27010;47.718;12.912;2023-03-23T08:58:50;1.93;;;1.30;;
41275;SDS011;27010;47.718;12.912;2023-03-23T09:01:50;3.40;;;1.30;;
41275;SDS011;27010;47.718;12.912;2023-03-23T09:04:51;4.73;;;1.40;;
41275;SDS011;27010;47.718;12.912;2023-03-23T09:07:54;3.90;;;1.10;;
41275;SDS011;27010;47.718;12.912;2023-03-23T09:10:59;5.27;;;1.30;;
41275;SDS011;27010;47.718;12.912;2023-03-23T09:14:00;2.00;;;1.10;;
41275;SDS011;27010;47.718;12.912;2023-03-23T09:17:02;5.80;;;1.00;;
41275;SDS011;27010;47.718;12.912;2023-03-23T09:20:05;1.77;;;1.17;;
41275;SDS011;27010;47.718;12.912;2023-03-23T09:23:13;4.17;;;1.20;;
41275;SDS011;27010;47.718;12.912;2023-03-23T09:26:15;4.27;;;1.30;;
41275;SDS011;27010;47.718;12.912;2023-03-23T09:29:15;2.70;;;1.30;;
41275;SDS011;27010;47.718;12.912;2023-03-23T09:32:17;1.73;;;1.40;;
41275;SDS011;27010;47.718;12.912;2023-03-23T09:35:17;4.30;;;1.80;;
41275;SDS011;27010;47.718;12.912;2023-03-23T09:38:21;2.20;;;1.27;;
41275;SDS011;27010;47.718;12.912;2023-03-23T09:44:33;2.83;;;1.00;;
41275;SDS011;27010;47.718;12.912;2023-03-23T09:54:47;1.80;;;1.00;;
41275;SDS011;27010;47.718;12.912;2023-03-23T09:58:10;3.10;;;1.40;;
41275;SDS011;27010;47.718;12.912;2023-03-23T10:01:15;3.77;;;0.90;;
41275;SDS011;27010;47.718;12.912;2023-03-23T10:04:33;3.83;;;1.27;;
41275;SDS011;27010;47.718;12.912;2023-03-23T10:07:39;3.47;;;1.45;;
41275;SDS011;27010;47.718;12.912;2023-03-23T10:10:57;3.13;;;1.27;;
41275;SDS011;27010;47.718;12.912;2023-03-23T10:20:52;3.28;;;1.35;;
41275;SDS011;27010;47.718;12.912;2023-03-23T10:24:00;2.22;;;1.20;;
41275;SDS011;27010;47.718;12.912;2023-03-23T10:30:16;3.22;;;1.00;;
41275;SDS011;27010;47.718;12.912;2023-03-23T10:33:41;2.90;;;1.25;;
41275;SDS011;27010;47.718;12.912;2023-03-23T10:36:52;5.30;;;1.00;;
41275;SDS011;27010;47.718;12.912;2023-03-23T10:39:59;4.05;;;1.20;;
41275;SDS011;27010;47.718;12.912;2023-03-23T10:43:02;3.38;;;0.90;;
41275;SDS011;27010;47.718;12.912;2023-03-23T10:46:05;5.78;;;1.67;;
41275;SDS011;27010;47.718;12.912;2023-03-23T10:49:12;3.40;;;0.80;;
41275;SDS011;27010;47.718;12.912;2023-03-23T10:52:25;0.95;;;0.85;;
41275;SDS011;27010;47.718;12.912;2023-03-23T10:55:37;1.55;;;0.90;;
41275;SDS011;27010;47.718;12.912;2023-03-23T10:58:39;2.40;;;1.10;;
41275;SDS011;27010;47.718;12.912;2023-03-23T11:01:42;1.23;;;0.77;;
41275;SDS011;27010;47.718;12.912;2023-03-23T11:04:58;1.38;;;0.85;;
41275;SDS011;27010;47.718;12.912;2023-03-23T11:08:01;2.20;;;0.82;;
41275;SDS011;27010;47.718;12.912;2023-03-23T11:11:14;2.70;;;0.90;;
41275;SDS011;27010;47.718;12.912;2023-03-23T11:14:26;1.77;;;0.98;;
41275;SDS011;27010;47.718;12.912;2023-03-23T11:17:31;2.83;;;0.75;;
41275;SDS011;27010;47.718;12.912;2023-03-23T11:20:36;2.72;;;1.20;;
41275;SDS011;27010;47.718;12.912;2023-03-23T11:23:40;1.48;;;1.08;;
41275;SDS011;27010;47.718;12.912;2023-03-23T11:26:43;1.25;;;1.15;;
41275;SDS011;27010;47.718;12.912;2023-03-23T11:29:52;1.52;;;0.77;;
41275;SDS011;27010;47.718;12.912;2023-03-23T11:32:54;2.20;;;1.00;;
41275;SDS011;27010;47.718;12.912;2023-03-23T11:35:56;0.85;;;0.70;;
41275;SDS011;27010;47.718;12.912;2023-03-23T11:38:58;1.40;;;1.00;;
41275;SDS011;27010;47.718;12.912;2023-03-23T11:42:11;1.10;;;0.80;;
41275;SDS011;27010;47.718;12.912;2023-03-23T11:45:16;1.27;;;0.80;;
41275;SDS011;27010;47.718;12.912;2023-03-23T11:52:32;2.75;;;1.13;;
41275;SDS011;27010;47.718;12.912;2023-03-23T11:58:55;2.30;;;0.90;;
41275;SDS011;27010;47.718;12.912;2023-03-23T12:08:59;1.17;;;1.08;;
41275;SDS011;27010;47.718;12.912;2023-03-23T12:15:43;2.60;;;0.70;;
41275;SDS011;27010;47.718;12.912;2023-03-23T12:32:17;1.40;;;0.82;;
41275;SDS011;27010;47.718;12.912;2023-03-23T12:35:24;1.60;;;0.90;;
41275;SDS011;27010;47.718;12.912;2023-03-23T12:41:40;3.15;;;1.25;;
41275;SDS011;27010;47.718;12.912;2023-03-23T12:44:52;1.73;;;0.80;;
41275;SDS011;27010;47.718;12.912;2023-03-23T13:01:03;1.88;;;1.13;;
41275;SDS011;27010;47.718;12.912;2023-03-23T13:07:24;1.15;;;0.93;;
41275;SDS011;27010;47.718;12.912;2023-03-23T13:10:37;1.23;;;1.05;;
41275;SDS011;27010;47.718;12.912;2023-03-23T13:13:43;1.27;;;1.10;;
41275;SDS011;27010;47.718;12.912;2023-03-23T13:23:39;2.22;;;1.35;;
41275;SDS011;27010;47.718;12.912;2023-03-23T13:26:51;2.17;;;1.42;;
41275;SDS011;27010;47.718;12.912;2023-03-23T13:29:58;2.20;;;1.20;;
41275;SDS011;27010;47.718;12.912;2023-03-23T13:33:03;2.28;;;1.05;;
41275;SDS011;27010;47.718;12.912;2023-03-23T13:36:09;3.03;;;1.10;;
41275;SDS011;27010;47.718;12.912;2023-03-23T13:39:19;2.78;;;1.10;;
41275;SDS011;27010;47.718;12.912;2023-03-23T13:42:25;2.03;;;1.10;;
41275;SDS011;27010;47.718;12.912;2023-03-23T13:48:28;4.95;;;1.10;;
41275;SDS011;27010;47.718;12.912;2023-03-23T13:54:40;2.60;;;1.15;;
41275;SDS011;27010;47.718;12.912;2023-03-23T13:57:52;3.80;;;1.13;;
41275;SDS011;27010;47.718;12.912;2023-03-23T14:04:16;2.20;;;1.20;;
41275;SDS011;27010;47.718;12.912;2023-03-23T14:07:18;3.47;;;1.20;;
41275;SDS011;27010;47.718;12.912;2023-03-23T14:10:19;1.70;;;1.08;;
41275;SDS011;27010;47.718;12.912;2023-03-23T14:13:28;2.03;;;1.00;;
41275;SDS011;27010;47.718;12.912;2023-03-23T14:16:48;3.38;;;1.10;;
41275;SDS011;27010;47.718;12.912;2023-03-23T14:19:52;1.67;;;1.30;;
41275;SDS011;27010;47.718;12.912;2023-03-23T14:22:55;4.00;;;1.50;;
41275;SDS011;27010;47.718;12.912;2023-03-23T14:25:59;1.70;;;1.40;;
41275;SDS011;27010;47.718;12.912;2023-03-23T14:29:10;1.55;;;1.40;;
41275;SDS011;27010;47.718;12.912;2023-03-23T14:32:16;2.00;;;1.10;;
41275;SDS011;27010;47.718;12.912;2023-03-23T14:38:29;4.50;;;1.60;;
41275;SDS011;27010;47.718;12.912;2023-03-23T14:41:33;1.52;;;1.27;;
41275;SDS011;27010;47.718;12.912;2023-03-23T14:44:37;2.80;;;1.02;;
41275;SDS011;27010;47.718;12.912;2023-03-23T14:47:44;1.23;;;1.10;;
41275;SDS011;27010;47.718;12.912;2023-03-23T14:50:58;5.65;;;1.45;;
41275;SDS011;27010;47.718;12.912;2023-03-23T14:54:07;2.00;;;1.50;;
41275;SDS011;27010;47.718;12.912;2023-03-23T14:57:12;4.65;;;1.48;;
41275;SDS011;27010;47.718;12.912;2023-03-23T15:00:16;1.70;;;1.42;;
41275;SDS011;27010;47.718;12.912;2023-03-23T15:03:20;1.98;;;1.35;;
41275;SDS011;27010;47.718;12.912;2023-03-23T15:06:22;5.18;;;2.00;;
41275;SDS011;27010;47.718;12.912;2023-03-23T15:09:24;2.20;;;1.80;;
41275;SDS011;27010;47.718;12.912;2023-03-23T15:12:26;2.85;;;2.30;;
41275;SDS011;27010;47.718;12.912;2023-03-23T15:15:33;2.75;;;1.70;;
41275;SDS011;27010;47.718;12.912;2023-03-23T15:18:35;3.88;;;2.00;;
41275;SDS011;27010;47.718;12.912;2023-03-23T15:21:52;1.95;;;1.67;;
41275;SDS011;27010;47.718;12.912;2023-03-23T15:25:11;6.70;;;3.15;;
41275;SDS011;27010;47.718;12.912;2023-03-23T15:28:20;3.38;;;1.60;;
41275;SDS011;27010;47.718;12.912;2023-03-23T15:31:23;2.65;;;2.00;;
41275;SDS011;27010;47.718;12.912;2023-03-23T15:34:25;2.75;;;1.80;;
41275;SDS011;27010;47.718;12.912;2023-03-23T15:37:31;4.10;;;2.05;;
41275;SDS011;27010;47.718;12.912;2023-03-23T15:40:36;3.05;;;1.75;;
41275;SDS011;27010;47.718;12.912;2023-03-23T15:43:49;2.05;;;1.70;;
41275;SDS011;27010;47.718;12.912;2023-03-23T15:46:55;4.05;;;1.92;;
41275;SDS011;27010;47.718;12.912;2023-03-23T15:50:46;6.43;;;1.70;;
41275;SDS011;27010;47.718;12.912;2023-03-23T15:53:29;3.00;;;1.90;;
41275;SDS011;27010;47.718;12.912;2023-03-23T15:56:31;2.80;;;2.25;;
41275;SDS011;27010;47.718;12.912;2023-03-23T15:59:32;2.83;;;2.05;;
41275;SDS011;27010;47.718;12.912;2023-03-23T16:02:34;3.92;;;1.80;;
41275;SDS011;27010;47.718;12.912;2023-03-23T16:05:37;4.80;;;2.22;;
41275;SDS011;27010;47.718;12.912;2023-03-23T16:08:40;4.00;;;1.80;;
41275;SDS011;27010;47.718;12.912;2023-03-23T16:11:54;2.90;;;2.35;;
41275;SDS011;27010;47.718;12.912;2023-03-23T16:14:56;3.90;;;2.45;;
41275;SDS011;27010;47.718;12.912;2023-03-23T16:17:58;7.18;;;2.00;;
41275;SDS011;27010;47.718;12.912;2023-03-23T16:21:00;4.10;;;2.33;;
41275;SDS011;27010;47.718;12.912;2023-03-23T16:24:04;4.57;;;2.27;;
41275;SDS011;27010;47.718;12.912;2023-03-23T16:27:08;3.10;;;2.10;;
41275;SDS011;27010;47.718;12.912;2023-03-23T16:33:16;6.73;;;2.40;;
41275;SDS011;27010;47.718;12.912;2023-03-23T16:36:18;4.00;;;2.27;;
41275;SDS011;27010;47.718;12.912;2023-03-23T16:39:20;2.73;;;2.10;;
41275;SDS011;27010;47.718;12.912;2023-03-23T16:42:23;4.20;;;2.10;;
41275;SDS011;27010;47.718;12.912;2023-03-23T16:45:26;8.63;;;2.63;;
41275;SDS011;27010;47.718;12.912;2023-03-23T16:48:28;3.33;;;2.50;;
41275;SDS011;27010;47.718;12.912;2023-03-23T16:51:30;3.63;;;2.60;;
41275;SDS011;27010;47.718;12.912;2023-03-23T16:54:32;4.00;;;2.60;;
41275;SDS011;27010;47.718;12.912;2023-03-23T16:57:34;5.10;;;3.17;;
41275;SDS011;27010;47.718;12.912;2023-03-23T17:00:38;8.43;;;3.20;;
41275;SDS011;27010;47.718;12.912;2023-03-23T17:03:41;5.40;;;2.33;;
41275;SDS011;27010;47.718;12.912;2023-03-23T17:06:44;4.83;;;2.40;;
41275;SDS011;27010;47.718;12.912;2023-03-23T17:09:47;4.27;;;2.70;;
41275;SDS011;27010;47.718;12.912;2023-03-23T17:12:50;8.57;;;3.00;;
41275;SDS011;27010;47.718;12.912;2023-03-23T17:15:53;5.90;;;3.10;;
41275;SDS011;27010;47.718;12.912;2023-03-23T17:18:56;4.93;;;3.13;;
41275;SDS011;27010;47.718;12.912;2023-03-23T17:21:58;7.07;;;2.43;;
41275;SDS011;27010;47.718;12.912;2023-03-23T17:25:01;3.23;;;2.30;;
41275;SDS011;27010;47.718;12.912;2023-03-23T17:28:04;4.03;;;2.30;;
41275;SDS011;27010;47.718;12.912;2023-03-23T17:31:07;3.70;;;2.50;;
41275;SDS011;27010;47.718;12.912;2023-03-23T17:34:09;5.70;;;2.77;;
41275;SDS011;27010;47.718;12.912;2023-03-23T17:37:12;3.77;;;2.20;;
41275;SDS011;27010;47.718;12.912;2023-03-23T17:40:14;7.80;;;2.43;;
41275;SDS011;27010;47.718;12.912;2023-03-23T17:43:16;4.20;;;2.47;;
41275;SDS011;27010;47.718;12.912;2023-03-23T17:46:18;7.40;;;2.73;;
41275;SDS011;27010;47.718;12.912;2023-03-23T17:49:21;4.67;;;2.60;;
41275;SDS011;27010;47.718;12.912;2023-03-23T17:52:23;3.97;;;2.40;;
41275;SDS011;27010;47.718;12.912;2023-03-23T17:55:26;5.80;;;2.33;;
41275;SDS011;27010;47.718;12.912;2023-03-23T17:58:28;5.17;;;2.47;;
41275;SDS011;27010;47.718;12.912;2023-03-23T18:01:31;3.03;;;2.10;;
41275;SDS011;27010;47.718;12.912;2023-03-23T18:04:33;4.73;;;2.27;;
41275;SDS011;27010;47.718;12.912;2023-03-23T18:07:35;4.60;;;2.43;;
41275;SDS011;27010;47.718;12.912;2023-03-23T18:10:38;4.47;;;3.20;;
41275;SDS011;27010;47.718;12.912;2023-03-23T18:13:41;3.40;;;2.50;;
41275;SDS011;27010;47.718;12.912;2023-03-23T18:16:43;3.07;;;1.97;;
41275;SDS011;27010;47.718;12.912;2023-03-23T18:19:45;3.80;;;1.70;;
41275;SDS011;27010;47.718;12.912;2023-03-23T18:22:48;7.80;;;2.30;;
41275;SDS011;27010;47.718;12.912;2023-03-23T18:25:50;4.77;;;2.17;;
41275;SDS011;27010;47.718;12.912;2023-03-23T18:28:54;3.07;;;1.77;;
41275;SDS011;27010;47.718;12.912;2023-03-23T18:31:57;4.20;;;2.10;;
41275;SDS011;27010;47.718;12.912;2023-03-23T18:35:00;5.27;;;1.80;;
41275;SDS011;27010;47.718;12.912;2023-03-23T18:38:02;4.77;;;2.13;;
41275;SDS011;27010;47.718;12.912;2023-03-23T18:41:05;3.23;;;2.10;;
41275;SDS011;27010;47.718;12.912;2023-03-23T18:44:10;4.40;;;1.67;;
41275;SDS011;27010;47.718;12.912;2023-03-23T18:47:12;5.80;;;2.10;;
41275;SDS011;27010;47.718;12.912;2023-03-23T18:50:14;2.63;;;1.73;;
41275;SDS011;27010;47.718;12.912;2023-03-23T18:53:17;3.43;;;2.17;;
41275;SDS011;27010;47.718;12.912;2023-03-23T18:56:20;5.47;;;2.07;;
41275;SDS011;27010;47.718;12.912;2023-03-23T18:59:22;3.03;;;2.00;;
41275;SDS011;27010;47.718;12.912;2023-03-23T19:02:24;3.07;;;2.17;;
41275;SDS011;27010;47.718;12.912;2023-03-23T19:05:26;2.33;;;1.90;;
41275;SDS011;27010;47.718;12.912;2023-03-23T19:08:29;4.73;;;2.20;;
41275;SDS011;27010;47.718;12.912;2023-03-23T19:11:31;2.53;;;1.83;;
41275;SDS011;27010;47.718;12.912;2023-03-23T19:14:34;2.93;;;1.90;;
41275;SDS011;27010;47.718;12.912;2023-03-23T19:17:37;3.10;;;2.03;;
41275;SDS011;27010;47.718;12.912;2023-03-23T19:20:40;3.60;;;2.23;;
41275;SDS011;27010;47.718;12.912;2023-03-23T19:24:03;2.27;;;2.07;;
41275;SDS011;27010;47.718;12.912;2023-03-23T19:27:05;2.93;;;2.50;;
41275;SDS011;27010;47.718;12.912;2023-03-23T19:30:08;2.40;;;1.90;;
41275;SDS011;27010;47.718;12.912;2023-03-23T19:33:11;4.73;;;2.07;;
41275;SDS011;27010;47.718;12.912;2023-03-23T19:36:13;6.80;;;1.97;;
41275;SDS011;27010;47.718;12.912;2023-03-23T19:39:17;3.63;;;1.93;;
41275;SDS011;27010;47.718;12.912;2023-03-23T19:42:19;3.43;;;1.90;;
41275;SDS011;27010;47.718;12.912;2023-03-23T19:45:22;3.23;;;1.57;;
41275;SDS011;27010;47.718;12.912;2023-03-23T19:48:25;2.53;;;1.63;;
41275;SDS011;27010;47.718;12.912;2023-03-23T19:51:27;3.57;;;2.17;;
41275;SDS011;27010;47.718;12.912;2023-03-23T19:54:31;2.83;;;2.13;;
41275;SDS011;27010;47.718;12.912;2023-03-23T19:57:37;5.43;;;1.80;;
41275;SDS011;27010;47.718;12.912;2023-03-23T20:00:40;3.83;;;1.77;;